createdAt,value
2019-06-07T00:00:04.169Z,957.58
2019-06-07T00:01:03.959Z,957.56
2019-06-07T00:02:03.940Z,957.64
2019-06-07T00:03:03.953Z,957.57
2019-06-07T00:04:03.919Z,957.55
2019-06-07T00:05:03.930Z,957.56
2019-06-07T00:06:03.910Z,957.54
2019-06-07T00:07:03.905Z,957.52
2019-06-07T00:08:07.696Z,957.52
2019-06-07T00:09:04.860Z,957.49
2019-06-07T00:10:03.871Z,957.52
2019-06-07T00:11:03.911Z,957.50
2019-06-07T00:12:03.831Z,957.53
2019-06-07T00:13:03.824Z,957.46
2019-06-07T00:14:03.822Z,957.49
2019-06-07T00:15:03.800Z,957.45
2019-06-07T00:16:03.812Z,957.43
2019-06-07T00:17:03.790Z,957.39
2019-06-07T00:18:03.771Z,957.46
2019-06-07T00:19:03.749Z,957.38
2019-06-07T00:20:03.752Z,957.42
2019-06-07T00:21:03.750Z,957.36
2019-06-07T00:22:17.751Z,957.40
2019-06-07T00:23:04.703Z,957.33
2019-06-07T00:24:03.692Z,957.30
2019-06-07T00:25:03.689Z,957.31
2019-06-07T00:26:03.699Z,957.35
2019-06-07T00:27:03.710Z,957.27
2019-06-07T00:28:03.671Z,957.29
2019-06-07T00:29:03.749Z,957.22
2019-06-07T00:30:29.551Z,957.27
2019-06-07T00:31:04.640Z,957.28
2019-06-07T00:32:03.640Z,957.21
2019-06-07T00:33:03.610Z,957.20
2019-06-07T00:34:03.589Z,957.17
2019-06-07T00:35:03.569Z,957.22
2019-06-07T00:36:03.570Z,957.23
2019-06-07T00:37:03.740Z,957.23
2019-06-07T00:38:03.564Z,957.19
2019-06-07T00:39:03.557Z,957.17
2019-06-07T00:40:14.131Z,957.16
2019-06-07T00:41:04.509Z,957.18
2019-06-07T00:42:03.522Z,957.15
2019-06-07T00:43:03.522Z,957.17
2019-06-07T00:44:03.510Z,957.14
2019-06-07T00:45:03.499Z,957.08
2019-06-07T00:46:03.462Z,957.04
2019-06-07T00:47:03.440Z,957.10
2019-06-07T00:48:03.501Z,957.10
2019-06-07T00:49:03.435Z,957.08
2019-06-07T00:50:03.401Z,957.03
2019-06-07T00:51:03.403Z,957.02
2019-06-07T00:52:03.390Z,957.02
2019-06-07T00:53:29.173Z,957.00
2019-06-07T00:54:04.369Z,956.97
2019-06-07T00:55:03.374Z,956.97
2019-06-07T00:56:03.356Z,957.00
2019-06-07T00:57:03.330Z,957.02
2019-06-07T00:58:03.334Z,956.95
2019-06-07T00:59:11.459Z,956.92
2019-06-07T01:00:04.344Z,956.91
2019-06-07T01:01:03.294Z,956.91
2019-06-07T01:02:03.330Z,956.90
2019-06-07T01:03:03.295Z,956.86
2019-06-07T01:04:03.252Z,956.86
2019-06-07T01:05:03.242Z,956.80
2019-06-07T01:06:03.234Z,956.79
2019-06-07T01:07:03.233Z,956.79
2019-06-07T01:08:03.943Z,956.82
2019-06-07T01:09:03.199Z,956.87
2019-06-07T01:10:03.191Z,956.74
2019-06-07T01:11:03.211Z,956.75
2019-06-07T01:12:03.176Z,956.69
2019-06-07T01:13:04.008Z,956.68
2019-06-07T01:14:03.151Z,956.69
2019-06-07T01:15:03.151Z,956.67
2019-06-07T01:16:03.146Z,956.65
2019-06-07T01:17:22.446Z,956.66
2019-06-07T01:19:04.120Z,956.64
2019-06-07T01:20:03.091Z,956.60
2019-06-07T01:21:03.093Z,956.64
2019-06-07T01:22:03.135Z,956.63
2019-06-07T01:23:03.059Z,956.56
2019-06-07T01:24:11.847Z,956.55
2019-06-07T01:25:04.020Z,956.48
2019-06-07T01:26:03.019Z,956.49
2019-06-07T01:27:03.012Z,956.40
2019-06-07T01:28:03.031Z,956.42
2019-06-07T01:29:03.001Z,956.43
2019-06-07T01:30:02.961Z,956.44
2019-06-07T01:31:02.959Z,956.44
2019-06-07T01:32:02.949Z,956.38
2019-06-07T01:33:02.932Z,956.47
2019-06-07T01:34:02.943Z,956.42
2019-06-07T01:35:02.912Z,956.43
2019-06-07T01:36:02.975Z,956.51
2019-06-07T01:37:02.888Z,956.43
2019-06-07T01:38:02.893Z,956.48
2019-06-07T01:39:02.889Z,956.37
2019-06-07T01:40:02.870Z,956.43
2019-06-07T01:41:02.850Z,956.37
2019-06-07T01:42:02.853Z,956.30
2019-06-07T01:43:02.834Z,956.38
2019-06-07T01:44:02.864Z,956.36
2019-06-07T01:45:03.118Z,956.39
2019-06-07T01:46:02.791Z,956.41
2019-06-07T01:47:02.784Z,956.47
2019-06-07T01:48:02.822Z,956.47
2019-06-07T01:49:02.777Z,956.38
2019-06-07T01:50:02.761Z,956.36
2019-06-07T01:51:02.740Z,956.36
2019-06-07T01:52:02.721Z,956.40
2019-06-07T01:53:02.728Z,956.37
2019-06-07T01:54:48.789Z,956.38
2019-06-07T01:55:03.691Z,956.31
2019-06-07T01:56:02.723Z,956.40
2019-06-07T01:57:02.674Z,956.36
2019-06-07T01:58:02.710Z,956.38
2019-06-07T01:59:02.670Z,956.28
2019-06-07T02:00:02.631Z,956.35
2019-06-07T02:01:02.633Z,956.34
2019-06-07T02:02:02.612Z,956.35
2019-06-07T02:03:02.616Z,956.31
2019-06-07T02:04:03.326Z,956.31
2019-06-07T02:05:02.582Z,956.34
2019-06-07T02:06:02.580Z,956.31
2019-06-07T02:07:02.572Z,956.28
2019-06-07T02:08:02.550Z,956.24
2019-06-07T02:09:02.850Z,956.32
2019-06-07T02:10:02.541Z,956.29
2019-06-07T02:11:02.522Z,956.30
2019-06-07T02:12:02.501Z,956.31
2019-06-07T02:13:02.503Z,956.30
2019-06-07T02:14:02.480Z,956.33
2019-06-07T02:15:03.450Z,956.37
2019-06-07T02:16:02.550Z,956.36
2019-06-07T02:17:02.538Z,956.32
2019-06-07T02:18:02.497Z,956.33
2019-06-07T02:19:03.961Z,956.33
2019-06-07T02:20:02.446Z,956.31
2019-06-07T02:21:02.420Z,956.36
2019-06-07T02:22:02.476Z,956.34
2019-06-07T02:23:02.381Z,956.36
2019-06-07T02:24:02.385Z,956.37
2019-06-07T02:25:35.065Z,956.41
2019-06-07T02:26:03.361Z,956.34
2019-06-07T02:27:02.379Z,956.39
2019-06-07T02:28:26.441Z,956.30
2019-06-07T02:29:03.329Z,956.40
2019-06-07T02:30:35.118Z,956.29
2019-06-07T02:31:03.323Z,956.24
2019-06-07T02:32:02.283Z,956.21
2019-06-07T02:33:02.321Z,956.19
2019-06-07T02:34:02.280Z,956.22
2019-06-07T02:35:02.278Z,956.22
2019-06-07T02:36:02.297Z,956.26
2019-06-07T02:37:02.256Z,956.18
2019-06-07T02:38:02.224Z,956.16
2019-06-07T02:39:02.292Z,956.20
2019-06-07T02:40:02.203Z,956.14
2019-06-07T02:41:02.191Z,956.11
2019-06-07T02:42:03.190Z,956.12
2019-06-07T02:43:02.167Z,956.08
2019-06-07T02:44:02.152Z,956.14
2019-06-07T02:45:02.161Z,956.14
2019-06-07T02:46:24.011Z,956.06
2019-06-07T02:47:03.148Z,956.10
2019-06-07T02:48:02.127Z,956.07
2019-06-07T02:49:02.111Z,956.05
2019-06-07T02:50:02.090Z,956.02
2019-06-07T02:51:02.100Z,956.03
2019-06-07T02:52:02.139Z,956.05
2019-06-07T02:53:02.061Z,955.98
2019-06-07T02:54:02.042Z,955.99
2019-06-07T02:55:02.042Z,955.95
2019-06-07T02:57:03.064Z,955.98
2019-06-07T02:58:02.015Z,955.96
2019-06-07T02:59:01.992Z,955.98
2019-06-07T03:00:17.018Z,956.01
2019-06-07T03:01:09.087Z,956.03
2019-06-07T03:02:03.046Z,955.98
2019-06-07T03:03:01.963Z,956.01
2019-06-07T03:04:02.034Z,956.05
2019-06-07T03:05:01.955Z,956.03
2019-06-07T03:06:01.918Z,956.02
2019-06-07T03:07:01.920Z,955.99
2019-06-07T03:08:01.900Z,955.99
2019-06-07T03:09:01.883Z,955.99
2019-06-07T03:10:01.960Z,955.94
2019-06-07T03:11:01.871Z,955.94
2019-06-07T03:12:01.872Z,955.93
2019-06-07T03:13:01.831Z,955.90
2019-06-07T03:14:01.820Z,955.93
2019-06-07T03:15:01.831Z,955.89
2019-06-07T03:16:01.811Z,955.87
2019-06-07T03:17:01.810Z,955.93
2019-06-07T03:18:01.784Z,955.83
2019-06-07T03:19:01.769Z,955.89
2019-06-07T03:20:01.770Z,955.86
2019-06-07T03:21:05.369Z,955.89
2019-06-07T03:22:01.760Z,955.86
2019-06-07T03:23:01.743Z,955.88
2019-06-07T03:24:01.710Z,955.86
2019-06-07T03:25:01.708Z,955.92
2019-06-07T03:26:01.691Z,955.96
2019-06-07T03:28:02.670Z,955.93
2019-06-07T03:29:01.667Z,955.93
2019-06-07T03:30:35.202Z,955.93
2019-06-07T03:31:03.373Z,955.97
2019-06-07T03:32:01.659Z,956.02
2019-06-07T03:33:01.641Z,955.97
2019-06-07T03:34:01.603Z,955.99
2019-06-07T03:35:01.600Z,956.02
2019-06-07T03:36:22.743Z,955.99
2019-06-07T03:37:02.590Z,956.02
2019-06-07T03:38:01.683Z,956.00
2019-06-07T03:39:01.550Z,956.09
2019-06-07T03:40:01.609Z,956.09
2019-06-07T03:41:01.531Z,956.04
2019-06-07T03:42:06.428Z,956.12
2019-06-07T03:43:02.521Z,956.09
2019-06-07T03:44:01.500Z,956.07
2019-06-07T03:45:01.496Z,956.10
2019-06-07T03:46:01.470Z,956.11
2019-06-07T03:47:01.471Z,956.14
2019-06-07T03:48:01.483Z,956.09
2019-06-07T03:49:01.435Z,956.10
2019-06-07T03:50:01.432Z,956.10
2019-06-07T03:51:04.961Z,956.08
2019-06-07T03:52:02.408Z,956.21
2019-06-07T03:53:01.469Z,956.27
2019-06-07T03:54:01.402Z,956.23
2019-06-07T03:55:01.369Z,956.25
2019-06-07T03:56:01.558Z,956.21
2019-06-07T03:57:01.350Z,956.25
2019-06-07T03:58:30.768Z,956.28
2019-06-07T03:59:02.330Z,956.25
2019-06-07T04:00:01.320Z,956.22
2019-06-07T04:01:02.166Z,956.22
2019-06-07T04:02:01.310Z,956.29
2019-06-07T04:03:01.300Z,956.23
2019-06-07T04:04:01.279Z,956.18
2019-06-07T04:05:01.261Z,956.19
2019-06-07T04:06:01.253Z,956.20
2019-06-07T04:07:01.314Z,956.23
2019-06-07T04:08:01.252Z,956.16
2019-06-07T04:09:01.261Z,956.24
2019-06-07T04:10:01.199Z,956.28
2019-06-07T04:11:01.256Z,956.30
2019-06-07T04:12:01.962Z,956.34
2019-06-07T04:13:01.188Z,956.32
2019-06-07T04:14:01.208Z,956.35
2019-06-07T04:15:01.160Z,956.42
2019-06-07T04:16:01.142Z,956.40
2019-06-07T04:17:01.205Z,956.44
2019-06-07T04:18:03.762Z,956.40
2019-06-07T04:19:01.120Z,956.40
2019-06-07T04:20:01.160Z,956.41
2019-06-07T04:21:01.087Z,956.39
2019-06-07T04:22:01.070Z,956.35
2019-06-07T04:23:01.060Z,956.33
2019-06-07T04:24:01.051Z,956.37
2019-06-07T04:25:01.068Z,956.31
2019-06-07T04:26:01.030Z,956.34
2019-06-07T04:27:01.021Z,956.32
2019-06-07T04:28:01.009Z,956.30
2019-06-07T04:29:32.512Z,956.32
2019-06-07T04:30:07.083Z,956.27
2019-06-07T04:31:01.971Z,956.30
2019-06-07T04:32:00.959Z,956.31
2019-06-07T04:33:00.949Z,956.33
2019-06-07T04:34:00.950Z,956.34
2019-06-07T04:35:00.950Z,956.33
2019-06-07T04:36:00.925Z,956.35
2019-06-07T04:37:00.909Z,956.35
2019-06-07T04:38:00.900Z,956.30
2019-06-07T04:39:00.882Z,956.16
2019-06-07T04:40:00.899Z,956.17
2019-06-07T04:41:00.870Z,956.16
2019-06-07T04:42:00.866Z,956.17
2019-06-07T04:43:00.839Z,956.18
2019-06-07T04:44:00.830Z,956.17
2019-06-07T04:45:00.841Z,956.16
2019-06-07T04:46:00.822Z,956.17
2019-06-07T04:47:00.799Z,956.14
2019-06-07T04:48:00.781Z,956.10
2019-06-07T04:49:00.770Z,956.14
2019-06-07T04:50:00.791Z,956.13
2019-06-07T04:51:00.817Z,956.19
2019-06-07T04:52:00.747Z,956.27
2019-06-07T04:53:00.744Z,956.21
2019-06-07T04:54:00.719Z,956.26
2019-06-07T04:55:00.810Z,956.24
2019-06-07T04:56:00.698Z,956.28
2019-06-07T04:57:00.698Z,956.28
2019-06-07T04:58:00.720Z,956.35
2019-06-07T04:59:00.666Z,956.26
2019-06-07T05:00:22.164Z,956.27
2019-06-07T05:01:03.635Z,956.23
2019-06-07T05:02:00.660Z,956.13
2019-06-07T05:03:00.630Z,956.18
2019-06-07T05:04:00.636Z,956.10
2019-06-07T05:05:00.609Z,956.10
2019-06-07T05:06:00.682Z,956.08
2019-06-07T05:07:00.586Z,956.07
2019-06-07T05:08:07.256Z,956.06
2019-06-07T05:09:01.592Z,956.05
2019-06-07T05:10:00.590Z,956.01
2019-06-07T05:11:00.550Z,955.98
2019-06-07T05:12:00.540Z,956.01
2019-06-07T05:13:00.523Z,955.96
2019-06-07T05:14:00.500Z,956.01
2019-06-07T05:15:00.520Z,956.06
2019-06-07T05:16:00.496Z,956.07
2019-06-07T05:17:00.471Z,956.05
2019-06-07T05:18:00.459Z,956.06
2019-06-07T05:19:00.449Z,956.06
2019-06-07T05:20:00.450Z,956.04
2019-06-07T05:21:00.496Z,955.98
2019-06-07T05:22:57.220Z,955.97
2019-06-07T05:24:06.681Z,955.94
2019-06-07T05:24:58.200Z,955.98
2019-06-07T05:25:57.201Z,955.94
2019-06-07T05:26:57.172Z,955.92
2019-06-07T05:27:57.170Z,955.86
2019-06-07T05:28:57.150Z,955.92
2019-06-07T05:30:13.268Z,955.87
2019-06-07T05:31:04.367Z,955.86
2019-06-07T05:31:58.128Z,955.90
2019-06-07T05:32:57.100Z,955.90
2019-06-07T05:33:57.110Z,955.95
2019-06-07T05:34:57.129Z,955.95
2019-06-07T05:35:57.111Z,955.89
2019-06-07T05:37:11.006Z,955.94
2019-06-07T05:37:58.050Z,955.93
2019-06-07T05:38:57.053Z,955.96
2019-06-07T05:39:57.053Z,955.93
2019-06-07T05:40:57.053Z,955.98
2019-06-07T05:41:57.000Z,955.96
2019-06-07T05:42:56.992Z,955.98
2019-06-07T05:44:12.098Z,956.05
2019-06-07T05:44:57.976Z,956.01
2019-06-07T05:45:56.983Z,956.06
2019-06-07T05:46:56.978Z,956.03
2019-06-07T05:47:56.941Z,956.00
2019-06-07T05:48:56.968Z,956.09
2019-06-07T05:49:56.972Z,956.06
2019-06-07T05:50:57.728Z,956.11
2019-06-07T05:51:56.912Z,956.06
2019-06-07T05:52:56.880Z,956.04
2019-06-07T05:53:56.876Z,956.05
2019-06-07T05:54:56.881Z,956.03
2019-06-07T05:55:56.857Z,956.03
2019-06-07T05:56:56.859Z,956.02
2019-06-07T05:57:56.829Z,955.96
2019-06-07T05:58:56.819Z,955.93
2019-06-07T05:59:56.833Z,955.89
2019-06-07T06:01:41.093Z,955.95
2019-06-07T06:02:07.983Z,955.97
2019-06-07T06:03:05.385Z,955.95
2019-06-07T06:03:57.788Z,955.85
2019-06-07T06:04:56.816Z,955.86
2019-06-07T06:05:56.744Z,955.80
2019-06-07T06:06:56.749Z,955.84
2019-06-07T06:07:56.733Z,955.86
2019-06-07T06:09:12.814Z,955.83
2019-06-07T06:09:57.702Z,955.75
2019-06-07T06:10:56.704Z,955.72
2019-06-07T06:12:02.338Z,955.75
2019-06-07T06:12:57.671Z,955.76
2019-06-07T06:14:06.468Z,955.80
2019-06-07T06:14:57.639Z,955.76
2019-06-07T06:16:02.035Z,955.78
2019-06-07T06:16:57.640Z,955.79
2019-06-07T06:17:57.036Z,955.83
2019-06-07T06:18:56.589Z,955.80
2019-06-07T06:19:56.580Z,955.84
2019-06-07T06:21:19.191Z,955.77
2019-06-07T06:21:57.572Z,955.81
2019-06-07T06:22:56.559Z,955.84
2019-06-07T06:23:56.543Z,955.86
2019-06-07T06:25:58.454Z,955.89
2019-06-07T06:27:14.852Z,955.91
2019-06-07T06:28:09.924Z,955.91
2019-06-07T06:28:57.479Z,955.86
2019-06-07T06:29:56.498Z,955.82
2019-06-07T06:30:56.460Z,955.81
2019-06-07T06:32:40.436Z,955.88
2019-06-07T06:32:58.702Z,955.73
2019-06-07T06:33:56.430Z,955.78
2019-06-07T06:34:56.438Z,955.70
2019-06-07T06:35:56.419Z,955.78
2019-06-07T06:36:56.405Z,955.75
2019-06-07T06:37:56.420Z,955.69
2019-06-07T06:38:56.369Z,955.67
2019-06-07T06:39:56.363Z,955.69
2019-06-07T06:41:14.599Z,955.71
2019-06-07T06:42:03.512Z,955.67
2019-06-07T06:42:57.339Z,955.65
2019-06-07T06:43:56.320Z,955.67
2019-06-07T06:44:56.305Z,955.64
2019-06-07T06:45:56.304Z,955.60
2019-06-07T06:46:58.338Z,955.67
2019-06-07T06:47:56.291Z,955.60
2019-06-07T06:48:56.250Z,955.63
2019-06-07T06:49:56.241Z,955.72
2019-06-07T06:50:56.235Z,955.66
2019-06-07T06:51:56.221Z,955.67
2019-06-07T06:52:56.241Z,955.65
2019-06-07T06:53:56.202Z,955.64
2019-06-07T06:55:00.967Z,955.62
2019-06-07T06:55:57.192Z,955.63
2019-06-07T06:57:17.881Z,955.62
2019-06-07T06:57:57.181Z,955.60
2019-06-07T06:59:57.132Z,955.53
2019-06-07T07:01:05.935Z,955.58
2019-06-07T07:01:57.110Z,955.64
2019-06-07T07:03:41.901Z,955.56
2019-06-07T07:04:10.488Z,955.60
2019-06-07T07:04:57.094Z,955.59
2019-06-07T07:05:56.066Z,955.59
2019-06-07T07:06:56.059Z,955.55
2019-06-07T07:07:56.072Z,955.62
2019-06-07T07:08:56.036Z,955.52
2019-06-07T07:09:59.271Z,955.55
2019-06-07T07:10:56.028Z,955.55
2019-06-07T07:12:11.177Z,955.60
2019-06-07T07:12:57.000Z,955.55
2019-06-07T07:13:57.083Z,955.55
2019-06-07T07:14:56.340Z,955.56
2019-06-07T07:15:58.409Z,955.55
2019-06-07T07:16:56.656Z,955.47
2019-06-07T07:18:07.782Z,955.42
2019-06-07T07:18:56.942Z,955.48
2019-06-07T07:19:55.931Z,955.43
2019-06-07T07:20:57.541Z,955.44
2019-06-07T07:21:55.893Z,955.40
2019-06-07T07:22:57.193Z,955.32
2019-06-07T07:24:19.247Z,955.35
2019-06-07T07:24:56.861Z,955.40
2019-06-07T07:25:59.655Z,955.30
2019-06-07T07:26:58.325Z,955.33
2019-06-07T07:27:55.831Z,955.26
2019-06-07T07:28:57.813Z,955.31
2019-06-07T07:30:30.047Z,955.25
2019-06-07T07:30:57.285Z,955.27
2019-06-07T07:31:56.554Z,955.23
2019-06-07T07:32:59.319Z,955.19
2019-06-07T07:35:00.569Z,955.19
2019-06-07T07:36:35.185Z,955.09
2019-06-07T07:36:59.668Z,955.12
2019-06-07T07:37:59.543Z,955.20
2019-06-07T07:39:04.122Z,955.14
2019-06-07T07:40:01.730Z,955.19
2019-06-07T07:41:07.720Z,955.16
2019-06-07T07:42:17.902Z,955.14
2019-06-07T07:42:56.878Z,955.10
2019-06-07T07:44:05.502Z,955.12
2019-06-07T07:44:56.916Z,955.05
2019-06-07T07:46:02.041Z,955.05
2019-06-07T07:46:56.621Z,955.07
2019-06-07T07:48:08.275Z,955.04
2019-06-07T07:48:56.611Z,955.04
2019-06-07T07:49:58.618Z,955.01
2019-06-07T07:51:00.278Z,954.99
2019-06-07T07:51:58.914Z,955.01
2019-06-07T07:53:00.315Z,954.94
2019-06-07T07:54:09.622Z,955.00
2019-06-07T07:54:58.349Z,955.03
2019-06-07T07:55:59.946Z,954.93
2019-06-07T07:56:57.420Z,955.00
2019-06-07T07:58:01.186Z,955.02
2019-06-07T07:59:01.758Z,955.05
2019-06-07T08:00:13.233Z,955.06
2019-06-07T08:01:07.817Z,955.03
2019-06-07T08:01:56.441Z,955.00
2019-06-07T08:02:58.633Z,955.04
2019-06-07T08:03:57.025Z,954.99
2019-06-07T08:05:58.893Z,954.94
2019-06-07T08:06:56.117Z,954.90
2019-06-07T08:08:00.220Z,954.89
2019-06-07T08:08:57.109Z,954.87
2019-06-07T08:09:59.966Z,954.82
2019-06-07T08:10:59.343Z,954.78
2019-06-07T08:12:01.840Z,954.88
2019-06-07T08:13:22.744Z,954.84
2019-06-07T08:13:58.513Z,954.82
2019-06-07T08:14:58.610Z,954.81
2019-06-07T08:15:59.390Z,954.80
2019-06-07T08:16:57.864Z,954.80
2019-06-07T08:18:00.162Z,954.78
2019-06-07T08:18:58.571Z,954.72
2019-06-07T08:19:57.550Z,954.73
2019-06-07T08:21:17.248Z,954.67
2019-06-07T08:21:56.221Z,954.72
2019-06-07T08:22:59.137Z,954.66
2019-06-07T08:24:00.598Z,954.71
2019-06-07T08:24:59.851Z,954.69
2019-06-07T08:26:00.631Z,954.67
2019-06-07T08:27:17.864Z,954.61
2019-06-07T08:27:58.610Z,954.63
2019-06-07T08:28:58.887Z,954.62
2019-06-07T08:30:25.350Z,954.70
2019-06-07T08:31:04.345Z,954.64
2019-06-07T08:31:58.191Z,954.66
2019-06-07T08:33:01.574Z,954.63
2019-06-07T08:33:58.383Z,954.59
2019-06-07T08:35:01.701Z,954.60
2019-06-07T08:36:14.026Z,954.55
2019-06-07T08:36:59.139Z,954.60
2019-06-07T08:38:22.048Z,954.50
2019-06-07T08:39:02.986Z,954.52
2019-06-07T08:39:58.600Z,954.53
2019-06-07T08:41:04.367Z,954.56
2019-06-07T08:42:13.787Z,954.50
2019-06-07T08:43:18.363Z,954.51
2019-06-07T08:43:58.454Z,954.46
2019-06-07T08:45:01.561Z,954.45
2019-06-07T08:46:03.823Z,954.41
2019-06-07T08:47:16.045Z,954.43
2019-06-07T08:47:59.378Z,954.41
2019-06-07T08:48:58.987Z,954.45
2019-06-07T08:49:59.583Z,954.39
2019-06-07T08:51:00.741Z,954.42
2019-06-07T08:52:03.035Z,954.37
2019-06-07T08:53:02.936Z,954.33
2019-06-07T08:54:18.869Z,954.33
2019-06-07T08:54:57.831Z,954.35
2019-06-07T08:56:00.911Z,954.38
2019-06-07T08:57:16.768Z,954.30
2019-06-07T08:58:02.407Z,954.25
2019-06-07T08:59:00.430Z,954.27
2019-06-07T08:59:59.047Z,954.26
2019-06-07T09:00:59.391Z,954.31
2019-06-07T09:01:59.775Z,954.30
2019-06-07T09:03:00.927Z,954.28
2019-06-07T09:04:02.609Z,954.32
2019-06-07T09:04:58.592Z,954.33
2019-06-07T09:05:57.090Z,954.33
2019-06-07T09:07:07.465Z,954.26
2019-06-07T09:08:21.814Z,954.29
2019-06-07T09:08:58.124Z,954.31
2019-06-07T09:10:01.842Z,954.34
2019-06-07T09:10:57.023Z,954.28
2019-06-07T09:11:56.503Z,954.30
2019-06-07T09:13:02.997Z,954.25
2019-06-07T09:13:57.727Z,954.21
2019-06-07T09:15:06.759Z,954.25
2019-06-07T09:16:00.755Z,954.23
2019-06-07T09:17:01.258Z,954.25
2019-06-07T09:18:34.763Z,954.27
2019-06-07T09:18:58.386Z,954.27
2019-06-07T09:19:56.229Z,954.31
2019-06-07T09:20:55.644Z,954.26
2019-06-07T09:21:54.679Z,954.27
2019-06-07T09:22:58.956Z,954.26
2019-06-07T09:23:57.201Z,954.24
2019-06-07T09:25:00.233Z,954.20
2019-06-07T09:26:05.279Z,954.23
2019-06-07T09:26:55.932Z,954.22
2019-06-07T09:28:00.660Z,954.15
2019-06-07T09:28:56.197Z,954.21
2019-06-07T09:30:00.666Z,954.16
2019-06-07T09:30:55.860Z,954.14
2019-06-07T09:31:55.935Z,954.18
2019-06-07T09:32:55.618Z,954.21
2019-06-07T09:33:54.480Z,954.26
2019-06-07T09:34:54.406Z,954.23
2019-06-07T09:35:54.397Z,954.14
2019-06-07T09:36:54.610Z,954.15
2019-06-07T09:38:07.638Z,954.12
2019-06-07T09:38:57.089Z,954.21
2019-06-07T09:39:54.365Z,954.04
2019-06-07T09:40:54.347Z,954.10
2019-06-07T09:41:56.504Z,954.03
2019-06-07T09:43:38.563Z,954.05
2019-06-07T09:44:04.784Z,954.05
2019-06-07T09:44:57.007Z,954.10
2019-06-07T09:45:56.662Z,954.06
2019-06-07T09:47:14.213Z,954.02
2019-06-07T09:47:57.044Z,953.95
2019-06-07T09:49:14.220Z,953.97
2019-06-07T09:49:58.623Z,953.95
2019-06-07T09:50:54.235Z,953.90
2019-06-07T09:51:54.248Z,953.88
2019-06-07T09:52:58.380Z,953.89
2019-06-07T09:53:56.160Z,953.86
2019-06-07T09:55:23.163Z,953.83
2019-06-07T09:55:56.839Z,953.87
2019-06-07T09:56:54.198Z,953.85
2019-06-07T09:57:54.156Z,953.82
2019-06-07T09:58:54.535Z,953.78
2019-06-07T09:59:54.149Z,953.77
2019-06-07T10:00:54.126Z,953.71
2019-06-07T10:01:54.147Z,953.69
2019-06-07T10:02:54.111Z,953.72
2019-06-07T10:03:54.110Z,953.67
2019-06-07T10:04:54.111Z,953.65
2019-06-07T10:05:54.069Z,953.63
2019-06-07T10:06:54.076Z,953.63
2019-06-07T10:08:04.093Z,953.54
2019-06-07T10:10:17.322Z,953.55
2019-06-07T10:10:55.023Z,953.58
2019-06-07T10:11:54.026Z,953.61
2019-06-07T10:12:54.024Z,953.59
2019-06-07T10:13:53.989Z,953.53
2019-06-07T10:14:54.002Z,953.55
2019-06-07T10:15:53.969Z,953.55
2019-06-07T10:16:53.979Z,953.62
2019-06-07T10:17:53.939Z,953.55
2019-06-07T10:18:53.939Z,953.61
2019-06-07T10:19:53.918Z,953.57
2019-06-07T10:20:53.904Z,953.56
2019-06-07T10:21:53.930Z,953.48
2019-06-07T10:22:53.890Z,953.43
2019-06-07T10:23:53.883Z,953.51
2019-06-07T10:24:53.862Z,953.51
2019-06-07T10:25:53.840Z,953.51
2019-06-07T10:26:53.870Z,953.44
2019-06-07T10:27:53.861Z,953.46
2019-06-07T10:28:53.825Z,953.46
2019-06-07T10:29:53.809Z,953.46
2019-06-07T10:30:53.900Z,953.44
2019-06-07T10:31:53.861Z,953.50
2019-06-07T10:32:53.815Z,953.51
2019-06-07T10:33:53.779Z,953.48
2019-06-07T10:34:53.793Z,953.48
2019-06-07T10:35:53.770Z,953.44
2019-06-07T10:36:53.755Z,953.49
2019-06-07T10:37:53.741Z,953.43
2019-06-07T10:38:53.722Z,953.43
2019-06-07T10:39:53.713Z,953.39
2019-06-07T10:40:53.683Z,953.45
2019-06-07T10:41:54.208Z,953.44
2019-06-07T10:42:54.221Z,953.44
2019-06-07T10:43:53.650Z,953.42
2019-06-07T10:44:53.651Z,953.48
2019-06-07T10:45:53.634Z,953.49
2019-06-07T10:46:53.621Z,953.41
2019-06-07T10:47:53.664Z,953.39
2019-06-07T10:48:53.619Z,953.46
2019-06-07T10:49:53.582Z,953.47
2019-06-07T10:50:53.602Z,953.45
2019-06-07T10:51:53.562Z,953.50
2019-06-07T10:52:53.567Z,953.36
2019-06-07T10:53:53.543Z,953.35
2019-06-07T10:54:53.532Z,953.37
2019-06-07T10:55:53.523Z,953.36
2019-06-07T10:56:53.526Z,953.29
2019-06-07T10:57:53.532Z,953.32
2019-06-07T10:58:53.552Z,953.35
2019-06-07T10:59:53.473Z,953.28
2019-06-07T11:00:53.461Z,953.28
2019-06-07T11:01:53.453Z,953.26
2019-06-07T11:02:55.244Z,953.27
2019-06-07T11:03:53.442Z,953.31
2019-06-07T11:04:53.530Z,953.28
2019-06-07T11:05:53.403Z,953.33
2019-06-07T11:06:53.393Z,953.28
2019-06-07T11:07:53.461Z,953.25
2019-06-07T11:08:53.383Z,953.28
2019-06-07T11:10:06.472Z,953.22
2019-06-07T11:10:54.646Z,953.23
2019-06-07T11:11:53.345Z,953.18
2019-06-07T11:12:53.355Z,953.24
2019-06-07T11:13:53.331Z,953.27
2019-06-07T11:14:53.312Z,953.24
2019-06-07T11:15:53.312Z,953.28
2019-06-07T11:16:53.294Z,953.21
2019-06-07T11:17:53.304Z,953.22
2019-06-07T11:18:53.284Z,953.19
2019-06-07T11:19:53.266Z,953.24
2019-06-07T11:20:53.245Z,953.23
2019-06-07T11:21:53.235Z,953.21
2019-06-07T11:23:00.263Z,953.21
2019-06-07T11:23:53.244Z,953.24
2019-06-07T11:24:53.217Z,953.17
2019-06-07T11:25:53.195Z,953.19
2019-06-07T11:26:53.185Z,953.18
2019-06-07T11:27:53.164Z,953.09
2019-06-07T11:28:53.198Z,953.21
2019-06-07T11:29:53.146Z,953.18
2019-06-07T11:30:53.133Z,953.24
2019-06-07T11:31:53.129Z,953.24
2019-06-07T11:32:53.125Z,953.24
2019-06-07T11:33:53.145Z,953.22
2019-06-07T11:34:53.095Z,953.18
2019-06-07T11:35:53.095Z,953.19
2019-06-07T11:36:53.118Z,953.10
2019-06-07T11:37:53.084Z,953.20
2019-06-07T11:38:53.241Z,953.20
2019-06-07T11:39:53.034Z,953.11
2019-06-07T11:40:53.067Z,953.10
2019-06-07T11:41:53.024Z,953.18
2019-06-07T11:42:53.060Z,953.16
2019-06-07T11:43:53.115Z,953.10
2019-06-07T11:44:56.730Z,953.15
2019-06-07T11:45:52.973Z,953.17
2019-06-07T11:46:53.028Z,953.10
2019-06-07T11:47:52.955Z,953.07
2019-06-07T11:48:52.955Z,953.11
2019-06-07T11:49:52.926Z,953.13
2019-06-07T11:50:52.916Z,953.06
2019-06-07T11:51:52.915Z,953.04
2019-06-07T11:52:52.900Z,953.01
2019-06-07T11:53:52.896Z,953.03
2019-06-07T11:54:52.897Z,953.00
2019-06-07T11:55:52.876Z,953.08
2019-06-07T11:56:52.856Z,953.09
2019-06-07T11:57:52.867Z,953.07
2019-06-07T11:58:52.845Z,953.03
2019-06-07T11:59:52.830Z,953.02
2019-06-07T12:00:52.818Z,952.96
2019-06-07T12:01:52.789Z,952.94
2019-06-07T12:02:52.811Z,952.91
2019-06-07T12:03:52.778Z,952.91
2019-06-07T12:04:52.789Z,952.85
2019-06-07T12:05:52.796Z,952.89
2019-06-07T12:06:52.737Z,952.85
2019-06-07T12:07:52.820Z,952.86
2019-06-07T12:08:52.737Z,952.81
2019-06-07T12:09:56.552Z,952.82
2019-06-07T12:10:52.768Z,952.75
2019-06-07T12:11:52.683Z,952.70
2019-06-07T12:12:52.677Z,952.72
2019-06-07T12:13:52.659Z,952.66
2019-06-07T12:14:52.672Z,952.71
2019-06-07T12:15:52.657Z,952.69
2019-06-07T12:16:52.636Z,952.73
2019-06-07T12:17:52.617Z,952.66
2019-06-07T12:18:52.614Z,952.65
2019-06-07T12:19:52.611Z,952.66
2019-06-07T12:20:52.588Z,952.64
2019-06-07T12:21:52.577Z,952.67
2019-06-07T12:22:52.586Z,952.61
2019-06-07T12:23:52.550Z,952.57
2019-06-07T12:24:52.559Z,952.63
2019-06-07T12:25:52.539Z,952.65
2019-06-07T12:26:52.549Z,952.57
2019-06-07T12:27:52.517Z,952.52
2019-06-07T12:28:52.531Z,952.55
2019-06-07T12:29:52.510Z,952.53
2019-06-07T12:30:55.144Z,952.52
2019-06-07T12:31:52.480Z,952.52
2019-06-07T12:32:52.457Z,952.53
2019-06-07T12:33:52.529Z,952.47
2019-06-07T12:34:52.471Z,952.52
2019-06-07T12:35:52.452Z,952.56
2019-06-07T12:36:52.571Z,952.48